Terminal Aerodrome Forecast
Issued by NWS

Home | Current Version | Previous Version | Text Only | Print | Product List | Glossary Off
Versions: 1 2 3 4 5 6 7 8 9 10 11 12 13 14 15 16 17 18 19 20 21 22 23

257
FTUS43 KTOP 261740
TAFMHK
TAF
KMHK 261740Z 2618/2718 15010G19KT P6SM BKN035
     FM262000 18011G19KT P6SM TSRA BKN025CB
     FM270100 15012KT P6SM VCTS SCT025 BKN040CB
     FM270300 15013KT 5SM TSRA OVC035CB
     FM270600 14009KT P6SM BKN020=

USA.gov is the U.S. government's official web portal to all federal, state and local government web resources and services.